sensor_id;sensor_type;location;lat;lon;timestamp;temperature;humidity
40323;DHT22;26030;51.164;17.100;2023-06-14T00:03:52;24.10;55.80
40323;DHT22;26030;51.164;17.100;2023-06-14T00:08:57;24.10;56.00
40323;DHT22;26030;51.164;17.100;2023-06-14T00:14:02;24.00;56.10
40323;DHT22;26030;51.164;17.100;2023-06-14T00:19:08;24.00;56.10
40323;DHT22;26030;51.164;17.100;2023-06-14T00:24:14;24.00;56.10
40323;DHT22;26030;51.164;17.100;2023-06-14T00:29:18;24.00;56.10
40323;DHT22;26030;51.164;17.100;2023-06-14T00:34:22;23.90;56.10
40323;DHT22;26030;51.164;17.100;2023-06-14T00:39:26;24.00;56.10
40323;DHT22;26030;51.164;17.100;2023-06-14T00:44:31;23.90;56.00
40323;DHT22;26030;51.164;17.100;2023-06-14T00:49:35;23.90;56.50
40323;DHT22;26030;51.164;17.100;2023-06-14T00:54:40;23.90;55.90
40323;DHT22;26030;51.164;17.100;2023-06-14T00:59:46;23.90;56.30
40323;DHT22;26030;51.164;17.100;2023-06-14T01:04:53;23.90;55.90
40323;DHT22;26030;51.164;17.100;2023-06-14T01:15:39;23.90;55.90
40323;DHT22;26030;51.164;17.100;2023-06-14T01:20:46;24.00;55.50
40323;DHT22;26030;51.164;17.100;2023-06-14T01:25:53;24.10;55.20
40323;DHT22;26030;51.164;17.100;2023-06-14T01:31:00;24.10;55.20
40323;DHT22;26030;51.164;17.100;2023-06-14T01:36:10;24.00;55.40
40323;DHT22;26030;51.164;17.100;2023-06-14T01:41:16;23.90;55.60
40323;DHT22;26030;51.164;17.100;2023-06-14T01:46:22;23.90;55.80
40323;DHT22;26030;51.164;17.100;2023-06-14T01:51:27;23.80;55.70
40323;DHT22;26030;51.164;17.100;2023-06-14T01:56:31;23.80;56.10
40323;DHT22;26030;51.164;17.100;2023-06-14T02:01:36;23.80;55.90
40323;DHT22;26030;51.164;17.100;2023-06-14T02:06:40;23.80;55.90
40323;DHT22;26030;51.164;17.100;2023-06-14T02:11:45;23.80;55.90
40323;DHT22;26030;51.164;17.100;2023-06-14T02:16:50;23.70;55.90
40323;DHT22;26030;51.164;17.100;2023-06-14T02:21:54;23.70;55.90
40323;DHT22;26030;51.164;17.100;2023-06-14T02:26:58;23.70;56.60
40323;DHT22;26030;51.164;17.100;2023-06-14T02:32:04;23.70;56.00
40323;DHT22;26030;51.164;17.100;2023-06-14T02:37:11;23.70;55.90
40323;DHT22;26030;51.164;17.100;2023-06-14T02:42:16;23.70;56.30
40323;DHT22;26030;51.164;17.100;2023-06-14T02:47:21;23.70;56.00
40323;DHT22;26030;51.164;17.100;2023-06-14T02:52:25;23.70;56.00
40323;DHT22;26030;51.164;17.100;2023-06-14T02:57:29;23.70;55.90
40323;DHT22;26030;51.164;17.100;2023-06-14T03:02:34;23.70;56.30
40323;DHT22;26030;51.164;17.100;2023-06-14T03:07:39;23.70;56.00
40323;DHT22;26030;51.164;17.100;2023-06-14T03:12:45;23.60;55.90
40323;DHT22;26030;51.164;17.100;2023-06-14T03:17:50;23.70;55.60
40323;DHT22;26030;51.164;17.100;2023-06-14T03:22:54;23.90;55.10
40323;DHT22;26030;51.164;17.100;2023-06-14T03:27:58;23.90;54.90
40323;DHT22;26030;51.164;17.100;2023-06-14T03:33:03;24.00;54.80
40323;DHT22;26030;51.164;17.100;2023-06-14T03:38:08;23.90;55.10
40323;DHT22;26030;51.164;17.100;2023-06-14T03:43:13;23.70;55.60
40323;DHT22;26030;51.164;17.100;2023-06-14T03:48:18;23.60;55.80
40323;DHT22;26030;51.164;17.100;2023-06-14T03:53:22;23.60;55.80
40323;DHT22;26030;51.164;17.100;2023-06-14T03:58:28;23.60;55.90
40323;DHT22;26030;51.164;17.100;2023-06-14T04:03:33;23.60;55.90
40323;DHT22;26030;51.164;17.100;2023-06-14T04:08:38;23.60;56.20
40323;DHT22;26030;51.164;17.100;2023-06-14T04:13:43;23.60;56.20
40323;DHT22;26030;51.164;17.100;2023-06-14T04:18:49;23.60;56.20
40323;DHT22;26030;51.164;17.100;2023-06-14T04:23:55;23.60;55.90
40323;DHT22;26030;51.164;17.100;2023-06-14T04:29:03;23.60;55.90
40323;DHT22;26030;51.164;17.100;2023-06-14T04:34:14;23.60;55.90
40323;DHT22;26030;51.164;17.100;2023-06-14T04:39:30;23.60;55.90
40323;DHT22;26030;51.164;17.100;2023-06-14T04:44:36;23.60;55.80
40323;DHT22;26030;51.164;17.100;2023-06-14T04:49:44;23.60;55.80
40323;DHT22;26030;51.164;17.100;2023-06-14T04:54:49;23.60;55.80
40323;DHT22;26030;51.164;17.100;2023-06-14T04:59:55;23.60;55.80
40323;DHT22;26030;51.164;17.100;2023-06-14T05:05:03;23.60;55.80
40323;DHT22;26030;51.164;17.100;2023-06-14T05:10:11;23.60;55.80
40323;DHT22;26030;51.164;17.100;2023-06-14T05:15:15;23.60;55.80
40323;DHT22;26030;51.164;17.100;2023-06-14T05:20:20;23.60;55.90
40323;DHT22;26030;51.164;17.100;2023-06-14T05:25:26;23.60;55.70
40323;DHT22;26030;51.164;17.100;2023-06-14T05:30:32;23.60;55.90
40323;DHT22;26030;51.164;17.100;2023-06-14T05:35:37;23.60;55.80
40323;DHT22;26030;51.164;17.100;2023-06-14T05:40:41;23.60;56.00
40323;DHT22;26030;51.164;17.100;2023-06-14T05:45:45;23.80;55.40
40323;DHT22;26030;51.164;17.100;2023-06-14T05:50:49;23.80;55.70
40323;DHT22;26030;51.164;17.100;2023-06-14T05:55:54;23.80;56.10
40323;DHT22;26030;51.164;17.100;2023-06-14T06:00:58;23.80;55.90
40323;DHT22;26030;51.164;17.100;2023-06-14T06:06:02;23.90;56.60
40323;DHT22;26030;51.164;17.100;2023-06-14T06:11:06;23.90;56.30
40323;DHT22;26030;51.164;17.100;2023-06-14T06:16:11;24.00;56.40
40323;DHT22;26030;51.164;17.100;2023-06-14T06:21:15;24.10;56.80
40323;DHT22;26030;51.164;17.100;2023-06-14T06:26:21;24.10;56.90
40323;DHT22;26030;51.164;17.100;2023-06-14T06:31:26;24.10;56.40
40323;DHT22;26030;51.164;17.100;2023-06-14T06:36:31;24.10;56.80
40323;DHT22;26030;51.164;17.100;2023-06-14T06:41:36;24.00;56.80
40323;DHT22;26030;51.164;17.100;2023-06-14T06:46:43;24.00;56.90
40323;DHT22;26030;51.164;17.100;2023-06-14T06:57:05;24.10;56.50
40323;DHT22;26030;51.164;17.100;2023-06-14T07:02:10;24.10;56.30
40323;DHT22;26030;51.164;17.100;2023-06-14T07:07:15;24.00;56.10
40323;DHT22;26030;51.164;17.100;2023-06-14T07:12:19;24.00;56.00
40323;DHT22;26030;51.164;17.100;2023-06-14T07:17:23;24.00;55.80
40323;DHT22;26030;51.164;17.100;2023-06-14T07:22:28;24.10;56.90
40323;DHT22;26030;51.164;17.100;2023-06-14T07:27:31;24.10;57.40
40323;DHT22;26030;51.164;17.100;2023-06-14T07:32:36;24.10;58.20
40323;DHT22;26030;51.164;17.100;2023-06-14T07:37:40;24.20;57.60
40323;DHT22;26030;51.164;17.100;2023-06-14T07:42:44;24.20;57.40
40323;DHT22;26030;51.164;17.100;2023-06-14T07:47:48;24.20;57.20
40323;DHT22;26030;51.164;17.100;2023-06-14T07:52:53;24.30;58.20
40323;DHT22;26030;51.164;17.100;2023-06-14T07:57:58;24.10;58.80
40323;DHT22;26030;51.164;17.100;2023-06-14T08:03:02;24.20;59.50
40323;DHT22;26030;51.164;17.100;2023-06-14T08:08:07;24.30;59.20
40323;DHT22;26030;51.164;17.100;2023-06-14T08:13:11;24.30;59.20
40323;DHT22;26030;51.164;17.100;2023-06-14T08:18:15;24.30;58.70
40323;DHT22;26030;51.164;17.100;2023-06-14T08:23:20;24.40;59.50
40323;DHT22;26030;51.164;17.100;2023-06-14T08:28:25;24.40;59.40
40323;DHT22;26030;51.164;17.100;2023-06-14T08:33:29;24.40;59.60
40323;DHT22;26030;51.164;17.100;2023-06-14T08:38:36;24.30;61.40
40323;DHT22;26030;51.164;17.100;2023-06-14T08:43:41;24.40;61.80
40323;DHT22;26030;51.164;17.100;2023-06-14T08:48:51;24.30;62.70
40323;DHT22;26030;51.164;17.100;2023-06-14T08:53:56;24.30;62.10
40323;DHT22;26030;51.164;17.100;2023-06-14T08:59:01;24.40;62.30
40323;DHT22;26030;51.164;17.100;2023-06-14T09:04:10;24.50;61.50
40323;DHT22;26030;51.164;17.100;2023-06-14T09:09:14;24.70;62.10
40323;DHT22;26030;51.164;17.100;2023-06-14T09:14:18;24.70;60.70
40323;DHT22;26030;51.164;17.100;2023-06-14T09:19:23;24.50;61.80
40323;DHT22;26030;51.164;17.100;2023-06-14T09:24:29;24.60;61.40
40323;DHT22;26030;51.164;17.100;2023-06-14T09:29:36;24.50;61.70
40323;DHT22;26030;51.164;17.100;2023-06-14T09:34:42;24.60;61.20
40323;DHT22;26030;51.164;17.100;2023-06-14T09:39:49;24.70;60.90
40323;DHT22;26030;51.164;17.100;2023-06-14T09:44:54;24.80;60.80
40323;DHT22;26030;51.164;17.100;2023-06-14T09:50:00;24.80;60.50
40323;DHT22;26030;51.164;17.100;2023-06-14T09:55:06;24.80;60.70
40323;DHT22;26030;51.164;17.100;2023-06-14T10:00:18;24.80;60.60
40323;DHT22;26030;51.164;17.100;2023-06-14T10:05:24;24.70;60.80
40323;DHT22;26030;51.164;17.100;2023-06-14T10:10:32;24.70;60.80
40323;DHT22;26030;51.164;17.100;2023-06-14T10:20:55;24.60;61.20
40323;DHT22;26030;51.164;17.100;2023-06-14T10:26:19;24.70;61.30
40323;DHT22;26030;51.164;17.100;2023-06-14T10:32:02;24.60;61.30
40323;DHT22;26030;51.164;17.100;2023-06-14T10:42:16;24.70;60.80
40323;DHT22;26030;51.164;17.100;2023-06-14T10:47:26;24.80;60.90
40323;DHT22;26030;51.164;17.100;2023-06-14T10:52:38;24.80;60.60
40323;DHT22;26030;51.164;17.100;2023-06-14T10:57:49;24.60;60.90
40323;DHT22;26030;51.164;17.100;2023-06-14T11:13:43;24.70;61.40
40323;DHT22;26030;51.164;17.100;2023-06-14T11:18:51;24.70;60.70
40323;DHT22;26030;51.164;17.100;2023-06-14T11:23:55;24.70;60.70
40323;DHT22;26030;51.164;17.100;2023-06-14T11:29:00;24.70;60.60
40323;DHT22;26030;51.164;17.100;2023-06-14T11:34:05;24.70;60.70
40323;DHT22;26030;51.164;17.100;2023-06-14T11:39:09;24.70;60.60
40323;DHT22;26030;51.164;17.100;2023-06-14T11:44:14;24.70;60.50
40323;DHT22;26030;51.164;17.100;2023-06-14T11:49:18;24.80;60.50
40323;DHT22;26030;51.164;17.100;2023-06-14T11:54:22;24.70;60.60
40323;DHT22;26030;51.164;17.100;2023-06-14T11:59:26;24.70;60.60
40323;DHT22;26030;51.164;17.100;2023-06-14T12:04:32;24.70;61.30
40323;DHT22;26030;51.164;17.100;2023-06-14T12:09:36;24.70;60.80
40323;DHT22;26030;51.164;17.100;2023-06-14T12:14:41;24.90;59.10
40323;DHT22;26030;51.164;17.100;2023-06-14T12:19:46;24.80;60.00
40323;DHT22;26030;51.164;17.100;2023-06-14T12:24:50;24.70;60.40
40323;DHT22;26030;51.164;17.100;2023-06-14T12:30:00;24.70;60.30
40323;DHT22;26030;51.164;17.100;2023-06-14T12:35:05;24.80;60.30
40323;DHT22;26030;51.164;17.100;2023-06-14T12:40:11;24.70;60.00
40323;DHT22;26030;51.164;17.100;2023-06-14T12:45:16;24.70;60.30
40323;DHT22;26030;51.164;17.100;2023-06-14T12:50:21;24.80;59.80
40323;DHT22;26030;51.164;17.100;2023-06-14T12:55:28;24.80;59.70
40323;DHT22;26030;51.164;17.100;2023-06-14T13:00:33;24.80;59.90
40323;DHT22;26030;51.164;17.100;2023-06-14T13:05:38;24.80;59.60
40323;DHT22;26030;51.164;17.100;2023-06-14T13:10:44;24.80;59.60
40323;DHT22;26030;51.164;17.100;2023-06-14T13:15:49;24.80;59.60
40323;DHT22;26030;51.164;17.100;2023-06-14T13:20:54;24.80;59.50
40323;DHT22;26030;51.164;17.100;2023-06-14T13:25:58;24.80;59.40
40323;DHT22;26030;51.164;17.100;2023-06-14T13:31:06;24.80;59.40
40323;DHT22;26030;51.164;17.100;2023-06-14T13:36:10;24.70;59.50
40323;DHT22;26030;51.164;17.100;2023-06-14T13:41:15;24.80;59.40
40323;DHT22;26030;51.164;17.100;2023-06-14T13:46:20;24.70;59.60
40323;DHT22;26030;51.164;17.100;2023-06-14T13:51:24;24.80;60.00
40323;DHT22;26030;51.164;17.100;2023-06-14T13:56:30;24.90;59.70
40323;DHT22;26030;51.164;17.100;2023-06-14T14:01:34;24.90;59.60
40323;DHT22;26030;51.164;17.100;2023-06-14T14:06:38;24.90;59.40
40323;DHT22;26030;51.164;17.100;2023-06-14T14:11:42;24.80;60.00
40323;DHT22;26030;51.164;17.100;2023-06-14T14:16:46;24.90;59.50
40323;DHT22;26030;51.164;17.100;2023-06-14T14:21:50;24.90;59.50
40323;DHT22;26030;51.164;17.100;2023-06-14T14:26:55;24.90;59.60
40323;DHT22;26030;51.164;17.100;2023-06-14T14:32:03;24.90;58.90
40323;DHT22;26030;51.164;17.100;2023-06-14T14:37:08;24.80;59.10
40323;DHT22;26030;51.164;17.100;2023-06-14T14:42:13;24.80;59.10
40323;DHT22;26030;51.164;17.100;2023-06-14T14:47:17;24.80;59.00
40323;DHT22;26030;51.164;17.100;2023-06-14T14:52:21;24.70;59.30
40323;DHT22;26030;51.164;17.100;2023-06-14T14:57:27;24.70;59.30
40323;DHT22;26030;51.164;17.100;2023-06-14T15:02:31;24.70;59.40
40323;DHT22;26030;51.164;17.100;2023-06-14T15:07:36;24.70;58.70
40323;DHT22;26030;51.164;17.100;2023-06-14T15:12:43;24.70;58.40
40323;DHT22;26030;51.164;17.100;2023-06-14T15:17:47;24.80;58.80
40323;DHT22;26030;51.164;17.100;2023-06-14T15:22:53;24.90;58.80
40323;DHT22;26030;51.164;17.100;2023-06-14T15:28:03;25.30;59.80
40323;DHT22;26030;51.164;17.100;2023-06-14T15:33:10;25.10;61.80
40323;DHT22;26030;51.164;17.100;2023-06-14T15:38:14;25.00;61.70
40323;DHT22;26030;51.164;17.100;2023-06-14T15:43:18;25.00;61.50
40323;DHT22;26030;51.164;17.100;2023-06-14T15:48:23;25.00;60.80
40323;DHT22;26030;51.164;17.100;2023-06-14T15:53:30;25.20;60.20
40323;DHT22;26030;51.164;17.100;2023-06-14T15:58:34;25.10;60.30
40323;DHT22;26030;51.164;17.100;2023-06-14T16:03:38;25.20;60.20
40323;DHT22;26030;51.164;17.100;2023-06-14T16:08:43;25.10;59.90
40323;DHT22;26030;51.164;17.100;2023-06-14T16:13:48;25.10;59.90
40323;DHT22;26030;51.164;17.100;2023-06-14T16:18:52;25.10;59.90
40323;DHT22;26030;51.164;17.100;2023-06-14T16:23:56;25.00;59.80
40323;DHT22;26030;51.164;17.100;2023-06-14T16:29:02;25.00;59.90
40323;DHT22;26030;51.164;17.100;2023-06-14T16:34:07;25.00;59.80
40323;DHT22;26030;51.164;17.100;2023-06-14T16:39:15;25.10;59.60
40323;DHT22;26030;51.164;17.100;2023-06-14T16:44:19;25.10;59.40
40323;DHT22;26030;51.164;17.100;2023-06-14T16:49:24;25.10;60.00
40323;DHT22;26030;51.164;17.100;2023-06-14T16:54:28;25.00;59.60
40323;DHT22;26030;51.164;17.100;2023-06-14T16:59:33;25.00;59.90
40323;DHT22;26030;51.164;17.100;2023-06-14T17:04:37;25.00;60.10
40323;DHT22;26030;51.164;17.100;2023-06-14T17:09:42;25.10;59.70
40323;DHT22;26030;51.164;17.100;2023-06-14T17:14:46;25.20;59.50
40323;DHT22;26030;51.164;17.100;2023-06-14T17:19:54;25.30;59.80
40323;DHT22;26030;51.164;17.100;2023-06-14T17:24:59;25.30;59.40
40323;DHT22;26030;51.164;17.100;2023-06-14T17:30:04;25.30;59.70
40323;DHT22;26030;51.164;17.100;2023-06-14T17:35:10;25.20;59.20
40323;DHT22;26030;51.164;17.100;2023-06-14T17:40:17;25.10;59.20
40323;DHT22;26030;51.164;17.100;2023-06-14T17:45:22;25.10;59.40
40323;DHT22;26030;51.164;17.100;2023-06-14T17:50:27;25.10;58.90
40323;DHT22;26030;51.164;17.100;2023-06-14T17:55:32;25.00;59.30
40323;DHT22;26030;51.164;17.100;2023-06-14T18:00:38;24.90;59.00
40323;DHT22;26030;51.164;17.100;2023-06-14T18:05:42;25.00;58.10
40323;DHT22;26030;51.164;17.100;2023-06-14T18:10:47;25.10;58.90
40323;DHT22;26030;51.164;17.100;2023-06-14T18:15:52;25.00;59.00
40323;DHT22;26030;51.164;17.100;2023-06-14T18:20:56;25.00;59.50
40323;DHT22;26030;51.164;17.100;2023-06-14T18:26:03;25.00;59.10
40323;DHT22;26030;51.164;17.100;2023-06-14T18:31:08;24.90;59.20
40323;DHT22;26030;51.164;17.100;2023-06-14T18:36:13;25.10;61.60
40323;DHT22;26030;51.164;17.100;2023-06-14T18:41:17;25.10;62.50
40323;DHT22;26030;51.164;17.100;2023-06-14T18:46:22;25.10;64.90
40323;DHT22;26030;51.164;17.100;2023-06-14T18:51:27;25.10;63.90
40323;DHT22;26030;51.164;17.100;2023-06-14T18:56:31;25.10;62.90
40323;DHT22;26030;51.164;17.100;2023-06-14T19:01:36;25.10;62.70
40323;DHT22;26030;51.164;17.100;2023-06-14T19:06:40;25.10;62.30
40323;DHT22;26030;51.164;17.100;2023-06-14T19:11:48;25.10;62.50
40323;DHT22;26030;51.164;17.100;2023-06-14T19:16:54;25.10;62.90
40323;DHT22;26030;51.164;17.100;2023-06-14T19:21:58;25.20;62.20
40323;DHT22;26030;51.164;17.100;2023-06-14T19:27:03;25.20;62.50
40323;DHT22;26030;51.164;17.100;2023-06-14T19:32:07;25.00;62.30
40323;DHT22;26030;51.164;17.100;2023-06-14T19:37:12;25.00;62.00
40323;DHT22;26030;51.164;17.100;2023-06-14T19:42:17;25.00;61.90
40323;DHT22;26030;51.164;17.100;2023-06-14T19:47:23;25.00;61.70
40323;DHT22;26030;51.164;17.100;2023-06-14T19:52:29;25.00;61.60
40323;DHT22;26030;51.164;17.100;2023-06-14T19:57:33;25.00;62.50
40323;DHT22;26030;51.164;17.100;2023-06-14T20:02:38;25.10;62.10
40323;DHT22;26030;51.164;17.100;2023-06-14T20:07:43;25.20;62.70
40323;DHT22;26030;51.164;17.100;2023-06-14T20:12:47;25.10;62.40
40323;DHT22;26030;51.164;17.100;2023-06-14T20:17:52;25.10;61.90
40323;DHT22;26030;51.164;17.100;2023-06-14T20:22:56;25.00;61.70
40323;DHT22;26030;51.164;17.100;2023-06-14T20:28:01;25.00;61.80
40323;DHT22;26030;51.164;17.100;2023-06-14T20:33:05;25.00;63.40
40323;DHT22;26030;51.164;17.100;2023-06-14T20:38:09;25.00;63.10
40323;DHT22;26030;51.164;17.100;2023-06-14T20:43:14;25.10;62.60
40323;DHT22;26030;51.164;17.100;2023-06-14T20:48:19;25.00;62.60
40323;DHT22;26030;51.164;17.100;2023-06-14T20:53:24;25.00;65.70
40323;DHT22;26030;51.164;17.100;2023-06-14T20:58:29;24.90;64.00
40323;DHT22;26030;51.164;17.100;2023-06-14T21:03:34;25.00;64.70
40323;DHT22;26030;51.164;17.100;2023-06-14T21:08:39;24.90;64.20
40323;DHT22;26030;51.164;17.100;2023-06-14T21:13:43;25.00;64.20
40323;DHT22;26030;51.164;17.100;2023-06-14T21:18:48;25.00;63.80
40323;DHT22;26030;51.164;17.100;2023-06-14T21:23:52;25.00;64.00
40323;DHT22;26030;51.164;17.100;2023-06-14T21:28:56;25.00;63.80
40323;DHT22;26030;51.164;17.100;2023-06-14T21:34:00;25.00;63.60
40323;DHT22;26030;51.164;17.100;2023-06-14T21:39:05;24.90;63.50
40323;DHT22;26030;51.164;17.100;2023-06-14T21:44:09;25.00;63.50
40323;DHT22;26030;51.164;17.100;2023-06-14T21:49:13;25.00;63.20
40323;DHT22;26030;51.164;17.100;2023-06-14T21:54:18;25.00;63.50
40323;DHT22;26030;51.164;17.100;2023-06-14T21:59:22;24.80;63.40
40323;DHT22;26030;51.164;17.100;2023-06-14T22:04:27;24.90;63.40
40323;DHT22;26030;51.164;17.100;2023-06-14T22:09:31;24.80;63.20
40323;DHT22;26030;51.164;17.100;2023-06-14T22:14:36;24.80;63.20
40323;DHT22;26030;51.164;17.100;2023-06-14T22:19:41;24.70;63.60
40323;DHT22;26030;51.164;17.100;2023-06-14T22:24:45;24.70;63.30
40323;DHT22;26030;51.164;17.100;2023-06-14T22:29:49;24.70;63.10
40323;DHT22;26030;51.164;17.100;2023-06-14T22:35:00;24.70;63.10
40323;DHT22;26030;51.164;17.100;2023-06-14T22:40:08;24.70;63.00
40323;DHT22;26030;51.164;17.100;2023-06-14T22:45:13;24.70;63.20
40323;DHT22;26030;51.164;17.100;2023-06-14T22:50:29;24.70;62.70
40323;DHT22;26030;51.164;17.100;2023-06-14T22:55:33;24.60;62.60
40323;DHT22;26030;51.164;17.100;2023-06-14T23:00:38;24.60;62.70
40323;DHT22;26030;51.164;17.100;2023-06-14T23:05:43;24.60;62.50
40323;DHT22;26030;51.164;17.100;2023-06-14T23:10:50;24.60;62.40
40323;DHT22;26030;51.164;17.100;2023-06-14T23:15:55;24.60;62.20
40323;DHT22;26030;51.164;17.100;2023-06-14T23:21:01;24.60;62.20
40323;DHT22;26030;51.164;17.100;2023-06-14T23:26:06;24.50;62.00
40323;DHT22;26030;51.164;17.100;2023-06-14T23:31:12;24.50;62.00
40323;DHT22;26030;51.164;17.100;2023-06-14T23:36:17;24.50;61.90
40323;DHT22;26030;51.164;17.100;2023-06-14T23:41:22;24.50;62.10
40323;DHT22;26030;51.164;17.100;2023-06-14T23:46:34;24.50;62.00
40323;DHT22;26030;51.164;17.100;2023-06-14T23:51:38;24.40;61.90
40323;DHT22;26030;51.164;17.100;2023-06-14T23:56:45;24.50;61.70
